Аэропорт: Емельяново. Красноярск

ICAO: UNKL

METAR:
2020-06-04 05:00:00
UNKL 040500Z 29007MPS 9999 SCT048CB 13/05 Q1008 R29/CLRD65 NOSIG RMK QFE731
METAR:
2020-06-04 04:36:00
TAF AMD UNKL 040436Z 0404/0503 29003G10MPS 9999 SCT020CB TEMPO 0404/0412 6000 -SHRA FM041500 08003MPS 6000 SCT020 TEMPO 0420/0501 3100 BR